Time;durP1;ratioP1;P1;durP2;ratioP2;P2;SDS_P1;SDS_P2;PMS_P1;PMS_P2;Temp;Humidity;BMP_temperature;BMP_pressure;BME280_temperature;BME280_humidity;BME280_pressure;Samples;Min_cycle;Max_cycle;Signal;HPM_P1;HPM_P2
2023/01/08 00:01:16;;;;;;;8.60;6.00;;;;;;;6.42;67.85;98961.50;4989053;28;20176;-85
2023/01/08 00:03:42;;;;;;;7.03;5.30;;;;;;;6.41;67.79;98956.38;4987358;28;20444;-85
2023/01/08 00:06:11;;;;;;;6.40;4.77;;;;;;;6.35;68.03;98954.97;4989464;28;20207;-85
2023/01/08 00:08:37;;;;;;;6.40;5.35;;;;;;;6.29;68.04;98957.94;4988952;28;20200;-85
2023/01/08 00:11:02;;;;;;;6.67;4.07;;;;;;;6.24;68.04;98946.03;4989066;28;20242;-84
2023/01/08 00:13:28;;;;;;;11.00;5.07;;;;;;;6.21;68.15;98944.44;4988337;28;20455;-85
2023/01/08 00:15:53;;;;;;;6.67;4.33;;;;;;;6.11;68.73;98938.94;4988001;28;20171;-85
2023/01/08 00:18:25;;;;;;;6.70;5.40;;;;;;;6.08;68.50;98939.09;4988411;28;20928;-85
2023/01/08 00:20:51;;;;;;;6.35;4.82;;;;;;;6.05;68.31;98943.63;4972977;28;20252;-85
2023/01/08 00:23:18;;;;;;;7.30;4.30;;;;;;;6.04;68.82;98932.38;4984051;28;20278;-85
2023/01/08 00:26:14;;;;;;;6.57;4.55;;;;;;;6.04;68.90;98926.31;4970035;28;20924;-85
2023/01/08 00:28:42;;;;;;;5.90;4.75;;;;;;;6.04;68.61;98926.31;4961017;28;20290;-85
2023/01/08 00:31:13;;;;;;;4.63;4.22;;;;;;;6.04;68.56;98924.53;4984832;28;20263;-85
2023/01/08 00:33:49;;;;;;;5.32;4.38;;;;;;;6.05;68.63;98920.16;4969320;28;20184;-85
2023/01/08 00:36:18;;;;;;;7.05;4.85;;;;;;;6.08;68.45;98913.03;4967737;28;20264;-84
2023/01/08 00:38:55;;;;;;;6.90;3.70;;;;;;;6.11;68.52;98907.63;4969165;28;20205;-85
2023/01/08 00:41:22;;;;;;;4.18;3.22;;;;;;;6.18;68.92;98908.13;4968850;28;20235;-85
2023/01/08 00:43:48;;;;;;;5.53;3.53;;;;;;;6.24;68.64;98912.13;4969033;28;20181;-85
2023/01/08 00:50:20;;;;;;;3.22;2.63;;;;;;;6.40;68.52;98898.16;4969199;28;20181;-84
2023/01/08 00:52:47;;;;;;;3.92;2.55;;;;;;;6.52;68.40;98907.03;4985980;28;20701;-84
2023/01/08 00:55:13;;;;;;;2.80;2.50;;;;;;;6.61;68.21;98900.44;4973249;28;20665;-85
2023/01/08 00:57:39;;;;;;;3.67;2.97;;;;;;;6.71;67.99;98896.34;4975498;28;20208;-84
2023/01/08 01:00:11;;;;;;;3.20;2.83;;;;;;;6.80;67.70;98895.78;4974874;28;20188;-85
2023/01/08 01:02:53;;;;;;;7.38;3.45;;;;;;;6.88;67.24;98887.50;4974807;28;20192;-85
2023/01/08 01:05:20;;;;;;;4.15;2.92;;;;;;;6.96;67.41;98889.66;4974176;28;20589;-85
2023/01/08 01:07:47;;;;;;;4.93;3.70;;;;;;;6.99;67.40;98884.25;4975847;28;20673;-85
2023/01/08 01:10:16;;;;;;;4.87;3.40;;;;;;;7.00;67.19;98885.94;4974817;28;20184;-84
2023/01/08 01:13:03;;;;;;;6.95;4.90;;;;;;;7.01;67.24;98879.78;4974737;28;20557;-85
2023/01/08 01:15:31;;;;;;;3.75;3.30;;;;;;;7.02;67.54;98879.69;4974435;28;20200;-85
2023/01/08 01:18:10;;;;;;;3.58;2.22;;;;;;;7.09;67.30;98880.16;4970470;28;20208;-84
2023/01/08 01:28:30;;;;;;;3.33;2.40;;;;;;;7.49;66.18;98862.84;4911953;29;20771;-82
2023/01/08 01:30:56;;;;;;;2.70;2.50;;;;;;;7.60;65.73;98862.19;4915534;29;20259;-83
2023/01/08 01:33:22;;;;;;;4.40;3.10;;;;;;;7.68;65.71;98859.91;4940030;28;20203;-83
2023/01/08 01:35:47;;;;;;;4.17;2.77;;;;;;;7.75;65.53;98852.53;4949928;28;20193;-83
2023/01/08 01:38:13;;;;;;;3.57;3.07;;;;;;;7.81;65.30;98844.28;4950501;29;20949;-82
2023/01/08 01:40:42;;;;;;;2.92;2.60;;;;;;;7.85;65.06;98847.53;4949969;28;20185;-83
2023/01/08 01:43:12;;;;;;;4.05;2.90;;;;;;;7.88;64.96;98847.34;4950131;28;20201;-82
2023/01/08 01:45:37;;;;;;;4.80;2.65;;;;;;;7.89;65.06;98844.63;4950179;29;20291;-83
2023/01/08 01:48:10;;;;;;;4.83;3.37;;;;;;;7.90;65.00;98837.63;4950277;29;20308;-83
2023/01/08 01:50:40;;;;;;;4.82;3.15;;;;;;;7.87;64.97;98843.88;4949934;28;20193;-82
2023/01/08 01:53:10;;;;;;;4.20;3.75;;;;;;;7.85;65.41;98844.91;4950247;28;20664;-83
2023/01/08 01:55:39;;;;;;;7.18;2.92;;;;;;;7.83;65.15;98841.56;4949755;29;20705;-83
2023/01/08 01:58:19;;;;;;;3.30;2.55;;;;;;;7.80;65.57;98833.91;4949781;29;20216;-82
2023/01/08 02:00:46;;;;;;;2.85;2.20;;;;;;;7.78;65.50;98838.41;4989437;28;20180;-83
2023/01/08 02:03:13;;;;;;;4.03;2.97;;;;;;;7.78;65.41;98836.66;4972861;28;20180;-83
2023/01/08 02:05:53;;;;;;;3.80;3.00;;;;;;;7.79;65.39;98833.09;4971024;28;20523;-83
2023/01/08 02:08:54;;;;;;;5.00;2.50;;;;;;;7.81;65.67;98843.47;4971321;28;20208;-83
2023/01/08 02:11:28;;;;;;;5.65;2.90;;;;;;;7.82;65.69;98839.91;4971107;28;20183;-83
2023/01/08 02:14:28;;;;;;;4.15;3.40;;;;;;;7.84;65.43;98845.88;4971496;28;20207;-83
2023/01/08 02:16:59;;;;;;;2.70;2.50;;;;;;;7.84;65.60;98836.25;4970141;28;20632;-83
2023/01/08 02:19:41;;;;;;;2.80;2.60;;;;;;;7.86;65.53;98846.63;4971589;28;20173;-82
2023/01/08 02:22:35;;;;;;;3.67;2.97;;;;;;;7.86;65.81;98834.38;4970924;28;20641;-83
2023/01/08 02:25:05;;;;;;;8.30;3.25;;;;;;;7.87;65.77;98829.97;4971192;28;20626;-82
2023/01/08 02:27:32;;;;;;;5.15;3.08;;;;;;;7.88;65.60;98827.25;4969265;28;20209;-83
2023/01/08 02:29:59;;;;;;;3.20;2.53;;;;;;;7.87;65.72;98819.53;4970785;28;20729;-83
2023/01/08 02:32:32;;;;;;;2.40;2.20;;;;;;;7.89;65.90;98823.72;4971017;28;20275;-83
2023/01/08 02:34:58;;;;;;;2.38;1.90;;;;;;;7.88;65.98;98816.78;4971004;28;20168;-83
2023/01/08 02:37:24;;;;;;;4.47;2.90;;;;;;;7.90;66.54;98814.09;4970692;28;20570;-83
2023/01/08 02:39:52;;;;;;;3.43;3.00;;;;;;;7.90;66.44;98809.69;4970634;28;20185;-83
2023/01/08 02:42:29;;;;;;;6.80;3.55;;;;;;;7.86;66.90;98810.84;4971087;28;20184;-83
2023/01/08 02:45:10;;;;;;;3.03;2.45;;;;;;;7.84;67.03;98804.03;4970328;28;20180;-83
2023/01/08 02:47:43;;;;;;;3.88;3.25;;;;;;;7.87;66.94;98809.91;4970663;28;20216;-83
2023/01/08 02:50:14;;;;;;;3.80;2.50;;;;;;;7.92;66.85;98817.44;4970808;28;20181;-82
2023/01/08 02:52:53;;;;;;;4.50;3.50;;;;;;;7.97;66.66;98804.91;4970556;28;20212;-83
2023/01/08 02:55:22;;;;;;;2.80;2.33;;;;;;;8.02;66.46;98808.06;4970183;28;20192;-83
2023/01/08 02:57:48;;;;;;;3.10;2.50;;;;;;;8.09;66.30;98811.94;4970135;28;20561;-83
2023/01/08 03:00:14;;;;;;;2.50;2.20;;;;;;;8.14;65.99;98811.63;4970740;28;20673;-83
2023/01/08 03:02:41;;;;;;;3.25;2.88;;;;;;;8.19;65.89;98809.56;4969114;28;20708;-82
2023/01/08 03:05:19;;;;;;;3.10;2.53;;;;;;;8.27;65.76;98822.13;4970113;28;20200;-82
2023/01/08 03:07:45;;;;;;;3.72;3.22;;;;;;;8.31;65.79;98828.81;4970095;28;20240;-82
2023/01/08 03:10:11;;;;;;;2.70;2.50;;;;;;;8.36;65.73;98832.81;4970164;28;20177;-82
2023/01/08 03:12:44;;;;;;;2.97;2.42;;;;;;;8.42;65.69;98836.81;4969925;28;20192;-82
2023/01/08 03:15:17;;;;;;;2.85;2.10;;;;;;;8.46;65.78;98847.94;4970597;28;20264;-82
2023/01/08 03:17:47;;;;;;;3.55;3.25;;;;;;;8.53;65.65;98852.66;4970854;28;20676;-82
2023/01/08 03:20:15;;;;;;;5.18;3.00;;;;;;;8.60;65.86;98864.38;4970895;28;20177;-82
2023/01/08 03:22:45;;;;;;;2.55;2.35;;;;;;;8.66;65.75;98851.81;4970272;28;20185;-82
2023/01/08 03:25:13;;;;;;;3.60;2.05;;;;;;;8.69;65.92;98859.47;4970128;28;20638;-82
2023/01/08 03:27:47;;;;;;;2.60;2.40;;;;;;;8.74;65.91;98870.47;4961921;28;20229;-82
2023/01/08 03:30:14;;;;;;;2.08;1.55;;;;;;;8.80;66.02;98877.88;4970363;28;20224;-82
2023/01/08 03:32:42;;;;;;;3.15;2.15;;;;;;;8.85;66.06;98875.81;4959700;28;20228;-82
2023/01/08 03:35:11;;;;;;;3.08;2.60;;;;;;;8.93;66.63;98878.72;4969220;28;20430;-82
2023/01/08 03:37:41;;;;;;;3.05;2.80;;;;;;;8.98;66.98;98878.44;4970220;28;20244;-82
2023/01/08 03:40:15;;;;;;;3.95;2.55;;;;;;;9.03;67.38;98885.03;4973445;28;20586;-81
2023/01/08 03:42:40;;;;;;;3.53;2.78;;;;;;;9.11;67.36;98883.66;4971479;28;20261;-82
2023/01/08 03:45:06;;;;;;;3.30;2.20;;;;;;;9.20;67.97;98872.53;4971278;28;20196;-82
2023/01/08 03:47:35;;;;;;;3.05;2.30;;;;;;;9.33;68.35;98877.75;4970746;28;20690;-82
2023/01/08 03:50:02;;;;;;;3.22;2.50;;;;;;;9.44;68.12;98876.06;4971958;28;20505;-83
2023/01/08 03:52:31;;;;;;;2.40;2.20;;;;;;;9.52;68.13;98865.03;4970817;28;20200;-80
2023/01/08 03:54:57;;;;;;;2.90;2.08;;;;;;;9.57;68.40;98877.81;4987091;28;20227;-80
2023/01/08 03:57:22;;;;;;;4.10;3.07;;;;;;;9.59;68.74;98883.78;4989843;28;20614;-80
2023/01/08 03:59:48;;;;;;;2.17;2.00;;;;;;;9.60;68.80;98886.28;4990446;28;20172;-80
2023/01/08 04:02:14;;;;;;;2.70;1.97;;;;;;;9.63;69.15;98885.25;4991111;28;20560;-82
2023/01/08 04:04:39;;;;;;;3.95;2.58;;;;;;;9.62;69.18;98884.41;5009899;28;20249;-80
2023/01/08 04:07:05;;;;;;;4.27;3.50;;;;;;;9.62;69.51;98873.09;5008742;28;20679;-81
2023/01/08 04:09:31;;;;;;;5.47;2.57;;;;;;;9.58;69.54;98874.25;5010382;28;20203;-80
2023/01/08 04:11:56;;;;;;;2.90;2.10;;;;;;;9.55;69.81;98874.47;5009562;28;20981;-81
2023/01/08 04:14:21;;;;;;;5.30;3.03;;;;;;;9.49;70.08;98873.94;5009914;28;20376;-84
2023/01/08 04:16:47;;;;;;;4.37;2.60;;;;;;;9.44;70.60;98883.91;5010622;28;20175;-80
2023/01/08 04:19:13;;;;;;;3.40;2.50;;;;;;;9.40;70.72;98892.13;5010004;28;20226;-82
2023/01/08 04:21:39;;;;;;;3.97;2.95;;;;;;;9.35;70.71;98884.56;5010958;28;20191;-82
2023/01/08 04:24:05;;;;;;;5.70;3.20;;;;;;;9.34;71.19;98861.09;5010213;28;20262;-81
2023/01/08 04:26:30;;;;;;;6.68;3.40;;;;;;;9.28;71.78;98859.72;5009410;28;20187;-80
2023/01/08 04:28:56;;;;;;;2.97;2.67;;;;;;;9.22;71.80;98853.13;5010297;28;20199;-82
2023/01/08 04:31:21;;;;;;;4.00;3.30;;;;;;;9.19;71.88;98852.53;5009878;28;20171;-82
2023/01/08 04:33:47;;;;;;;3.97;3.57;;;;;;;9.17;72.08;98851.78;5009485;28;20871;-81
2023/01/08 04:36:12;;;;;;;5.80;4.10;;;;;;;9.15;72.41;98848.44;5010663;28;20428;-83
2023/01/08 04:38:38;;;;;;;7.73;3.30;;;;;;;9.13;72.40;98845.06;5010046;28;20631;-81
2023/01/08 04:41:03;;;;;;;5.30;3.40;;;;;;;9.13;72.35;98840.69;5010246;28;20184;-81
2023/01/08 04:43:30;;;;;;;3.70;3.03;;;;;;;9.14;72.33;98831.06;5010162;28;20175;-80
2023/01/08 04:46:00;;;;;;;2.83;2.50;;;;;;;9.16;72.34;98837.03;5009915;28;20426;-80
2023/01/08 04:48:27;;;;;;;9.52;3.60;;;;;;;9.17;72.32;98831.66;5009219;28;20204;-81
2023/01/08 04:50:53;;;;;;;3.93;2.43;;;;;;;9.18;72.54;98832.50;4675674;28;5001726;-80
2023/01/08 04:53:19;;;;;;;5.20;2.70;;;;;;;9.20;72.39;98820.13;5012968;28;20184;-83
2023/01/08 04:55:44;;;;;;;3.70;3.20;;;;;;;9.21;72.41;98819.19;5010377;28;20180;-81
2023/01/08 04:58:11;;;;;;;4.70;3.10;;;;;;;9.21;72.48;98830.50;5010085;28;20195;-80
2023/01/08 05:00:38;;;;;;;6.53;3.97;;;;;;;9.19;72.57;98808.81;5009765;28;20247;-83
2023/01/08 05:03:04;;;;;;;6.55;4.50;;;;;;;9.17;72.83;98829.03;5009656;28;20594;-80
2023/01/08 05:05:29;;;;;;;8.73;5.10;;;;;;;9.15;73.72;98812.59;5009445;28;20233;-80
2023/01/08 05:07:54;;;;;;;5.30;4.07;;;;;;;9.13;73.68;98804.03;5010056;28;20750;-82
2023/01/08 05:10:20;;;;;;;3.43;2.70;;;;;;;9.07;74.17;98800.06;5010045;28;20235;-80
2023/01/08 05:12:45;;;;;;;3.97;3.13;;;;;;;9.05;74.22;98803.72;5010012;28;20201;-80
2023/01/08 05:15:10;;;;;;;4.93;4.20;;;;;;;9.05;74.26;98808.97;5010108;28;20206;-83
2023/01/08 05:17:36;;;;;;;8.30;5.43;;;;;;;9.07;74.42;98793.94;5003180;28;20197;-80
2023/01/08 05:20:01;;;;;;;4.67;3.80;;;;;;;9.08;74.28;98793.03;5008594;28;20563;-81
2023/01/08 05:22:26;;;;;;;14.00;5.77;;;;;;;9.11;74.37;98786.72;5009522;28;20193;-82
2023/01/08 05:24:52;;;;;;;3.30;2.73;;;;;;;9.12;74.40;98781.38;5011157;28;20188;-81
2023/01/08 05:27:18;;;;;;;3.83;2.40;;;;;;;9.15;74.30;98785.56;5010608;28;20228;-80
2023/01/08 05:29:43;;;;;;;3.47;2.60;;;;;;;9.15;74.54;98789.00;5010877;28;20229;-84
2023/01/08 05:32:15;;;;;;;3.10;2.33;;;;;;;9.20;74.46;98789.53;5010850;28;20242;-80
2023/01/08 05:34:41;;;;;;;2.90;2.58;;;;;;;9.23;74.83;98788.47;5012833;28;20173;-81
2023/01/08 05:37:06;;;;;;;2.43;2.23;;;;;;;9.24;74.84;98793.63;5018349;28;20181;-81
2023/01/08 05:39:32;;;;;;;4.03;2.50;;;;;;;9.26;74.80;98789.09;5014204;28;20208;-80
2023/01/08 05:41:57;;;;;;;3.60;2.10;;;;;;;9.28;74.80;98783.75;5013790;28;20188;-81
2023/01/08 05:44:22;;;;;;;3.90;1.93;;;;;;;9.33;74.58;98791.28;5013305;28;20193;-80
2023/01/08 05:46:48;;;;;;;3.43;2.80;;;;;;;9.34;74.71;98791.16;5013595;28;20215;-80
2023/01/08 05:49:13;;;;;;;2.63;2.40;;;;;;;9.35;74.67;98790.22;5013111;28;20672;-81
2023/01/08 05:51:38;;;;;;;5.97;3.07;;;;;;;9.34;74.57;98788.53;5012669;28;20219;-81
2023/01/08 05:54:04;;;;;;;2.90;2.53;;;;;;;9.33;74.86;98786.88;5013570;28;20187;-81
2023/01/08 05:56:29;;;;;;;2.43;2.20;;;;;;;9.31;75.17;98780.88;5012924;28;20185;-81
2023/01/08 05:58:55;;;;;;;3.73;2.27;;;;;;;9.25;75.71;98773.47;5012737;28;20195;-83
2023/01/08 06:01:21;;;;;;;2.73;2.50;;;;;;;9.24;75.71;98771.81;5013312;28;20245;-82
2023/01/08 06:03:46;;;;;;;3.00;2.50;;;;;;;9.24;75.81;98772.66;5012747;28;20183;-80
2023/01/08 06:06:12;;;;;;;2.60;2.33;;;;;;;9.27;75.63;98768.97;5012895;28;20423;-80
2023/01/08 06:08:38;;;;;;;3.27;2.33;;;;;;;9.27;75.91;98772.44;5012076;28;20755;-80
2023/01/08 06:11:06;;;;;;;4.73;2.23;;;;;;;9.29;75.64;98765.28;5012224;28;20645;-80
2023/01/08 06:13:33;;;;;;;2.95;2.22;;;;;;;9.31;75.94;98766.00;5011841;28;20439;-83
2023/01/08 06:15:59;;;;;;;3.38;2.30;;;;;;;9.33;75.79;98765.06;5012919;28;20188;-82
2023/01/08 06:18:25;;;;;;;2.27;2.07;;;;;;;9.33;75.88;98771.16;5012570;28;20207;-81
2023/01/08 06:20:51;;;;;;;2.17;1.75;;;;;;;9.35;75.87;98765.81;5012670;28;20451;-82
2023/01/08 06:23:16;;;;;;;1.73;1.63;;;;;;;9.37;75.75;98763.88;5012651;28;20492;-82
2023/01/08 06:25:41;;;;;;;6.80;2.37;;;;;;;9.38;75.87;98758.56;5011201;28;20621;-80
2023/01/08 06:28:07;;;;;;;2.70;2.50;;;;;;;9.43;75.56;98761.69;5012547;28;20240;-82
2023/01/08 06:30:33;;;;;;;2.93;2.60;;;;;;;9.44;75.69;98755.47;5012337;28;20220;-83
2023/01/08 06:32:59;;;;;;;2.60;2.07;;;;;;;9.46;75.64;98750.13;5012957;28;20251;-80
2023/01/08 06:35:25;;;;;;;3.10;1.90;;;;;;;9.51;75.45;98754.09;5011603;28;20435;-82
2023/01/08 06:37:51;;;;;;;2.27;1.50;;;;;;;9.57;75.64;98760.66;5012687;28;20592;-83
2023/01/08 06:40:17;;;;;;;1.43;1.20;;;;;;;9.60;75.28;98757.00;5012461;28;20886;-81
2023/01/08 06:42:43;;;;;;;1.20;1.10;;;;;;;9.65;75.09;98754.88;5011933;28;20196;-82
2023/01/08 06:45:09;;;;;;;3.00;1.30;;;;;;;9.69;74.99;98765.03;5012546;28;20176;-81
2023/01/08 06:47:34;;;;;;;1.67;1.40;;;;;;;9.71;74.55;98762.28;5012087;28;20709;-81
2023/01/08 06:50:00;;;;;;;1.90;1.30;;;;;;;9.76;74.57;98760.16;5011933;28;20911;-81
2023/01/08 06:52:25;;;;;;;2.83;1.70;;;;;;;9.78;74.38;98766.13;5012953;28;20190;-83
2023/01/08 06:54:51;;;;;;;2.30;1.70;;;;;;;9.81;74.45;98763.28;5013601;28;20185;-83
2023/01/08 06:57:16;;;;;;;1.37;1.27;;;;;;;9.80;74.30;98769.44;5013641;28;20201;-81
2023/01/08 06:59:42;;;;;;;2.83;1.40;;;;;;;9.85;74.01;98759.47;5014027;28;20345;-83
2023/01/08 07:02:13;;;;;;;1.42;1.20;;;;;;;9.91;73.84;98755.53;5014641;28;20190;-81
2023/01/08 07:04:38;;;;;;;2.13;1.10;;;;;;;9.92;73.68;98752.81;5015133;28;20551;-80
2023/01/08 07:07:04;;;;;;;1.10;1.00;;;;;;;9.93;73.75;98753.66;5015061;28;20209;-81
2023/01/08 07:09:29;;;;;;;1.17;1.00;;;;;;;9.92;73.58;98744.94;5014837;28;20177;-83
2023/01/08 07:11:54;;;;;;;1.50;1.40;;;;;;;9.96;73.61;98754.28;5013667;28;20210;-80
2023/01/08 07:14:20;;;;;;;1.83;1.60;;;;;;;9.95;73.58;98749.13;5013856;28;20185;-82
2023/01/08 07:16:45;;;;;;;2.80;1.67;;;;;;;9.97;73.52;98755.94;5010051;28;20184;-85
2023/01/08 07:19:11;;;;;;;1.30;1.10;;;;;;;9.98;73.37;98754.16;5011694;28;20207;-83
2023/01/08 07:21:36;;;;;;;2.30;1.80;;;;;;;9.98;73.47;98756.78;5011340;28;20191;-82
2023/01/08 07:24:02;;;;;;;8.50;3.37;;;;;;;9.97;73.46;98755.09;5012123;28;20180;-82
2023/01/08 07:26:28;;;;;;;3.05;1.88;;;;;;;9.96;73.41;98756.91;5011049;28;20189;-82
2023/01/08 07:28:53;;;;;;;1.30;1.20;;;;;;;9.94;73.55;98764.03;5011240;28;20269;-82
2023/01/08 07:31:19;;;;;;;1.30;1.00;;;;;;;9.94;73.40;98750.94;5012341;28;20177;-82
2023/01/08 07:33:44;;;;;;;2.13;1.10;;;;;;;9.94;73.62;98757.97;5011381;28;20234;-82
2023/01/08 07:36:10;;;;;;;1.20;1.10;;;;;;;9.94;73.50;98748.31;5011449;28;20187;-82
2023/01/08 07:38:35;;;;;;;1.17;0.83;;;;;;;9.93;73.61;98746.63;5011644;28;20177;-83
2023/01/08 07:41:00;;;;;;;2.43;1.50;;;;;;;9.97;73.70;98747.25;5011267;28;20280;-82
2023/01/08 07:43:28;;;;;;;1.30;1.20;;;;;;;9.97;73.36;98750.69;5011279;28;20180;-82
2023/01/08 07:45:54;;;;;;;1.20;1.00;;;;;;;10.01;73.05;98750.47;5011528;28;20180;-84
2023/01/08 07:48:19;;;;;;;1.10;0.93;;;;;;;9.99;73.16;98750.59;5010739;28;20229;-82
2023/01/08 07:50:44;;;;;;;1.63;1.20;;;;;;;10.03;72.97;98749.41;5010616;28;20188;-83
2023/01/08 07:53:12;;;;;;;4.27;3.97;;;;;;;10.07;72.79;98747.38;5011499;28;20219;-82
2023/01/08 07:55:38;;;;;;;3.33;1.20;;;;;;;10.10;72.49;98750.63;5010270;28;20211;-82
2023/01/08 07:58:10;;;;;;;2.50;1.10;;;;;;;10.14;72.47;98753.84;5008869;28;20574;-83
2023/01/08 08:00:36;;;;;;;1.00;1.00;;;;;;;10.15;72.33;98748.47;5009314;28;20188;-82
2023/01/08 08:03:04;;;;;;;1.10;1.00;;;;;;;10.17;72.34;98749.19;5009651;28;20211;-85
2023/01/08 08:05:30;;;;;;;1.90;1.30;;;;;;;10.19;72.17;98749.91;5009802;28;20183;-82
2023/01/08 08:07:55;;;;;;;1.40;1.30;;;;;;;10.22;72.10;98748.84;5009062;28;20207;-82
2023/01/08 08:10:21;;;;;;;1.20;1.10;;;;;;;10.25;71.78;98748.59;5009429;28;20532;-83
2023/01/08 08:12:46;;;;;;;1.77;1.30;;;;;;;10.25;71.69;98753.84;5009110;28;20203;-82
2023/01/08 08:15:11;;;;;;;1.20;1.00;;;;;;;10.25;71.39;98759.09;5009093;28;20246;-83
2023/01/08 08:17:37;;;;;;;1.73;1.10;;;;;;;10.34;71.05;98768.09;5009354;28;20235;-82
2023/01/08 08:20:02;;;;;;;2.17;1.70;;;;;;;10.38;70.83;98759.88;5010217;28;20191;-82
2023/01/08 08:22:28;;;;;;;1.00;1.00;;;;;;;10.47;70.70;98762.75;5007893;28;20282;-82
2023/01/08 08:24:53;;;;;;;1.10;0.77;;;;;;;10.48;70.73;98769.69;5009467;28;20477;-84
2023/01/08 08:28:02;;;;;;;1.27;1.03;;;;;;;10.52;70.34;98771.13;5011102;28;20224;-82
2023/01/08 08:30:45;;;;;;;1.35;1.00;;;;;;;10.53;69.95;98765.75;5010125;28;20312;-82
2023/01/08 08:33:28;;;;;;;1.08;0.93;;;;;;;10.55;70.01;98760.38;5009621;28;20712;-82
2023/01/08 08:36:33;;;;;;;1.80;1.02;;;;;;;10.62;69.23;98766.84;5009459;28;20664;-82
2023/01/08 08:39:11;;;;;;;1.20;1.10;;;;;;;10.61;69.11;98759.88;5008019;28;20381;-83
2023/01/08 08:41:51;;;;;;;1.55;1.05;;;;;;;10.66;68.96;98767.41;5007892;28;20681;-82
2023/01/08 08:44:51;;;;;;;1.35;1.00;;;;;;;10.68;69.13;98773.41;5009295;28;20226;-82
2023/01/08 08:47:27;;;;;;;1.23;0.82;;;;;;;10.68;69.11;98778.66;5009239;28;20230;-82
2023/01/08 08:49:54;;;;;;;1.83;0.95;;;;;;;10.66;68.70;98775.31;5006487;28;20190;-83
2023/01/08 08:52:19;;;;;;;1.70;1.00;;;;;;;10.67;68.83;98775.19;5008716;28;20176;-82
2023/01/08 08:54:45;;;;;;;1.63;1.33;;;;;;;10.67;68.67;98779.63;5007984;28;21185;-82
2023/01/08 08:57:11;;;;;;;1.67;1.13;;;;;;;10.68;68.83;98782.09;5008282;28;20196;-83
2023/01/08 08:59:36;;;;;;;1.47;1.13;;;;;;;10.66;68.98;98780.56;5008635;28;20200;-82
2023/01/08 09:02:26;;;;;;;1.30;1.20;;;;;;;10.65;68.99;98776.25;5010997;28;20417;-82
2023/01/08 09:04:52;;;;;;;0.90;0.90;;;;;;;10.65;68.84;98786.78;5012854;28;20435;-83
2023/01/08 09:07:18;;;;;;;1.50;0.93;;;;;;;10.63;69.16;98786.88;5014157;28;20210;-85
2023/01/08 09:10:04;;;;;;;1.30;0.90;;;;;;;10.63;68.96;98792.13;5013148;28;20257;-83
2023/01/08 09:13:03;;;;;;;0.98;0.88;;;;;;;10.61;69.26;98788.78;5014651;28;20675;-83
2023/01/08 09:18:30;;;;;;;2.42;1.00;;;;;;;10.63;69.43;98786.88;5006965;28;20557;-83
2023/01/08 09:21:04;;;;;;;1.10;0.95;;;;;;;10.61;69.43;98786.16;5015005;28;20198;-84
2023/01/08 09:23:34;;;;;;;1.95;1.10;;;;;;;10.59;69.38;98781.03;5014820;28;20191;-82
2023/01/08 09:26:14;;;;;;;1.20;1.00;;;;;;;10.60;69.22;98787.13;5015373;28;20191;-84
2023/01/08 09:28:42;;;;;;;1.00;0.73;;;;;;;10.58;69.22;98789.84;5015555;28;20251;-82
2023/01/08 09:34:50;;;;;;;1.50;1.10;;;;;;;10.58;69.24;98794.25;5011918;28;20261;-82
2023/01/08 09:38:09;;;;;;;1.13;0.90;;;;;;;10.61;69.39;98791.41;5004423;28;20231;-84
2023/01/08 09:41:04;;;;;;;1.08;0.98;;;;;;;10.60;69.40;98792.38;5013646;28;20177;-82
2023/01/08 09:43:49;;;;;;;0.80;0.80;;;;;;;10.58;69.54;98791.63;4975652;28;20199;-82
2023/01/08 09:46:23;;;;;;;1.13;1.00;;;;;;;10.58;69.59;98789.00;4986885;28;20230;-82
2023/01/08 09:48:59;;;;;;;1.38;1.17;;;;;;;10.57;69.34;98787.34;4994043;28;20672;-82
2023/01/08 09:51:32;;;;;;;1.00;0.90;;;;;;;10.60;69.46;98789.75;5002146;28;20183;-84
2023/01/08 09:53:58;;;;;;;1.15;1.05;;;;;;;10.60;69.59;98787.13;5020904;28;20191;-84
2023/01/08 09:56:24;;;;;;;0.80;0.70;;;;;;;10.60;69.37;98792.38;5019910;28;20250;-83
2023/01/08 09:58:53;;;;;;;0.73;0.73;;;;;;;10.61;69.54;98796.66;5018249;28;20208;-84
2023/01/08 10:01:47;;;;;;;1.35;0.70;;;;;;;10.59;69.25;98799.41;5018880;28;20683;-84
2023/01/08 10:04:28;;;;;;;1.40;1.15;;;;;;;10.63;69.09;98790.34;5008854;28;20196;-84
2023/01/08 10:06:56;;;;;;;1.70;1.10;;;;;;;10.60;69.32;98782.69;5022818;28;20376;-83
2023/01/08 10:09:28;;;;;;;1.27;1.13;;;;;;;10.65;69.17;98784.16;5022019;28;20437;-83
2023/01/08 10:11:59;;;;;;;1.05;0.70;;;;;;;10.62;69.06;98783.41;5022917;28;20204;-84
2023/01/08 10:14:46;;;;;;;1.15;0.80;;;;;;;10.67;69.00;98787.50;5022856;28;20184;-84
2023/01/08 10:17:31;;;;;;;1.08;0.98;;;;;;;10.69;68.82;98775.06;5023032;28;20191;-83
2023/01/08 10:19:56;;;;;;;2.75;0.85;;;;;;;10.71;69.05;98787.13;5022123;28;20218;-84
2023/01/08 10:22:24;;;;;;;1.33;1.20;;;;;;;10.70;68.96;98774.13;5022074;28;20273;-84
2023/01/08 10:24:50;;;;;;;0.90;0.70;;;;;;;10.68;69.18;98783.91;5019066;28;20187;-84
2023/01/08 10:27:22;;;;;;;0.80;0.80;;;;;;;10.70;68.99;98779.38;5033769;28;20224;-84
2023/01/08 10:29:51;;;;;;;1.35;0.73;;;;;;;10.69;69.42;98765.38;5018366;28;20238;-83
2023/01/08 10:32:35;;;;;;;1.13;1.02;;;;;;;10.69;69.43;98762.75;5019014;28;20229;-84
2023/01/08 10:35:18;;;;;;;1.13;1.02;;;;;;;10.72;69.84;98759.91;5019995;28;20470;-84
2023/01/08 10:37:46;;;;;;;0.98;0.88;;;;;;;10.68;70.07;98752.38;5023276;28;20635;-84
2023/01/08 10:40:43;;;;;;;1.40;1.20;;;;;;;10.67;70.16;98745.47;5021174;28;20181;-85
2023/01/08 10:43:42;;;;;;;0.82;0.70;;;;;;;10.60;70.39;98731.97;5019582;28;20187;-85
2023/01/08 10:46:36;;;;;;;1.08;0.80;;;;;;;10.59;70.52;98725.88;5020236;28;20241;-85
2023/01/08 10:49:06;;;;;;;1.10;0.88;;;;;;;10.62;70.39;98724.81;5033277;28;20213;-84
2023/01/08 10:51:32;;;;;;;0.90;0.80;;;;;;;10.61;70.46;98723.13;5015952;28;20182;-84
2023/01/08 10:54:29;;;;;;;1.30;1.00;;;;;;;10.63;70.45;98701.03;5017034;28;20276;-85
2023/01/08 10:56:55;;;;;;;1.60;1.27;;;;;;;10.67;70.68;98692.94;5017798;28;20219;-84
2023/01/08 10:59:23;;;;;;;1.50;1.20;;;;;;;10.71;70.36;98695.19;5016126;28;20212;-85
2023/01/08 11:01:52;;;;;;;1.30;0.70;;;;;;;10.73;70.20;98692.47;5015203;28;20561;-85
2023/01/08 11:04:35;;;;;;;1.10;1.00;;;;;;;10.73;70.05;98687.19;4998694;28;20657;-84
2023/01/08 11:07:07;;;;;;;1.70;1.60;;;;;;;10.73;69.95;98681.94;4996717;28;20351;-84
2023/01/08 11:09:44;;;;;;;2.42;1.77;;;;;;;10.73;69.97;98680.16;4998906;28;20183;-84
2023/01/08 11:12:38;;;;;;;1.20;1.10;;;;;;;10.74;69.81;98678.34;4999989;28;20186;-86
2023/01/08 11:15:38;;;;;;;1.63;1.05;;;;;;;10.76;69.57;98676.44;5000803;28;20255;-85
2023/01/08 11:18:17;;;;;;;1.98;1.58;;;;;;;10.80;69.21;98672.59;4996270;28;20200;-85
2023/01/08 11:20:52;;;;;;;1.92;1.30;;;;;;;10.83;69.08;98665.34;4993859;28;20250;-85
2023/01/08 11:23:27;;;;;;;1.33;1.10;;;;;;;10.86;69.05;98659.00;4993840;28;20271;-85
2023/01/08 11:26:03;;;;;;;1.27;1.00;;;;;;;10.87;68.74;98649.31;4997068;28;20183;-85
2023/01/08 11:28:53;;;;;;;2.47;1.17;;;;;;;10.90;68.41;98647.28;4997320;28;20208;-85
2023/01/08 11:31:40;;;;;;;1.10;1.00;;;;;;;10.90;68.36;98646.44;4997689;28;20231;-85
2023/01/08 11:34:32;;;;;;;1.23;1.02;;;;;;;10.95;68.30;98642.50;4997656;28;20178;-84
2023/01/08 11:37:09;;;;;;;1.00;0.90;;;;;;;10.96;68.44;98636.25;4998167;28;20182;-84
2023/01/08 11:39:39;;;;;;;1.30;1.20;;;;;;;10.99;68.58;98640.44;4999468;28;20211;-84
2023/01/08 11:42:18;;;;;;;2.40;1.40;;;;;;;10.99;68.48;98638.66;4997509;28;20197;-84
2023/01/08 11:45:15;;;;;;;1.25;1.15;;;;;;;11.00;68.80;98644.75;4993251;28;20232;-84
2023/01/08 11:48:16;;;;;;;1.23;1.00;;;;;;;10.96;68.88;98638.88;4995329;28;20208;-85
2023/01/08 11:50:51;;;;;;;1.63;1.00;;;;;;;10.92;69.12;98626.97;4996688;28;20741;-85
2023/01/08 11:53:28;;;;;;;1.02;0.93;;;;;;;10.89;69.52;98629.03;4994199;28;20191;-84
2023/01/08 12:00:30;;;;;;;2.55;1.00;;;;;;;10.84;69.82;98611.81;5015178;28;20212;-84
2023/01/08 12:03:35;;;;;;;1.30;1.20;;;;;;;10.87;69.92;98609.91;4995195;28;20201;-84
2023/01/08 12:06:40;;;;;;;1.90;1.40;;;;;;;10.88;70.00;98608.94;5017428;28;20209;-84
2023/01/08 12:21:44;;;;;;;1.40;1.30;;;;;;;10.90;70.03;98586.84;5019099;28;20261;-85
2023/01/08 12:25:02;;;;;;;1.20;1.10;;;;;;;10.87;70.00;98581.84;4925023;29;20237;-85
2023/01/08 12:28:57;;;;;;;1.23;1.13;;;;;;;10.88;69.97;98572.16;4934881;29;20225;-85
2023/01/08 12:32:26;;;;;;;2.85;1.83;;;;;;;10.85;69.87;98574.13;4925525;29;20235;-85
2023/01/08 12:35:25;;;;;;;2.08;1.35;;;;;;;10.86;70.02;98564.44;4939046;29;20192;-85
2023/01/08 12:38:42;;;;;;;1.35;1.25;;;;;;;10.80;70.37;98559.66;4925381;29;20199;-85